KGUP/GUP METAR and TAF weather

Enter ICAO airport designator
Station Type Date Time Source
KGUP METAR 2024/04/18 05:53 UTC NOAA

KGUP 180553Z AUTO 21009KT 10SM CLR 12/M05 A3012 RMK AO2 SLP079 T01171050 10222 20083 51010


Station Type Date Time Source
KGUP Decoded METAR 2024/04/18 05:53 UTC NOAA

GALLUP MUNICIPAL AIRPORT, NM, United States (KGUP) 35-31N 108-47W 1971M
Apr 18, 2024 - 01:53 AM EDT / 2024.04.18 0553 UTC
Wind: from the SSW (210 degrees) at 10 MPH (9 KT):0
Visibility: 10 mile(s):0
Sky conditions: clear
Temperature: 53.1 F (11.7 C)
Dew Point: 23.0 F (-5.0 C)
Relative Humidity: 30%
Pressure (altimeter): 30.12 in. Hg (1019 hPa)
Pressure tendency: 0.03 inches (1.0 hPa) higher than three hours ago
ob: KGUP 180553Z AUTO 21009KT 10SM CLR 12/M05 A3012 RMK AO2 SLP079 T01171050 10222 20083 51010
cycle: 6

Station Type Date Time Source
KGUP TAF 2024/04/18 06:30 UTC NOAA